sensor_id;sensor_type;location;lat;lon;timestamp;pressure;altitude;pressure_sealevel;temperature;humidity
37776;BME280;23614;33.774;130.514;2022-09-09T00:01:49;100938.32;;;28.13;46.74
37776;BME280;23614;33.774;130.514;2022-09-09T00:04:15;100951.90;;;27.66;47.31
37776;BME280;23614;33.774;130.514;2022-09-09T00:06:42;100956.91;;;27.94;47.47
37776;BME280;23614;33.774;130.514;2022-09-09T00:09:06;100953.34;;;28.07;47.08
37776;BME280;23614;33.774;130.514;2022-09-09T00:11:31;100949.13;;;27.99;47.16
37776;BME280;23614;33.774;130.514;2022-09-09T00:13:53;100954.56;;;27.97;47.17
37776;BME280;23614;33.774;130.514;2022-09-09T00:16:20;100960.75;;;28.24;46.47
37776;BME280;23614;33.774;130.514;2022-09-09T00:18:52;100960.55;;;28.09;47.00
37776;BME280;23614;33.774;130.514;2022-09-09T00:21:14;100963.14;;;28.00;47.21
37776;BME280;23614;33.774;130.514;2022-09-09T00:23:38;100962.60;;;27.72;47.98
37776;BME280;23614;33.774;130.514;2022-09-09T00:26:08;100967.41;;;27.71;47.83
37776;BME280;23614;33.774;130.514;2022-09-09T00:28:28;100969.71;;;28.00;47.38
37776;BME280;23614;33.774;130.514;2022-09-09T00:30:53;100966.09;;;28.05;47.19
37776;BME280;23614;33.774;130.514;2022-09-09T00:33:22;100967.61;;;28.22;46.58
37776;BME280;23614;33.774;130.514;2022-09-09T00:35:49;100970.69;;;28.42;47.31
37776;BME280;23614;33.774;130.514;2022-09-09T00:38:15;100972.65;;;28.62;45.98
37776;BME280;23614;33.774;130.514;2022-09-09T00:40:44;100981.46;;;28.72;45.50
37776;BME280;23614;33.774;130.514;2022-09-09T00:43:21;100985.83;;;29.09;44.00
37776;BME280;23614;33.774;130.514;2022-09-09T00:45:45;100986.36;;;28.93;43.66
37776;BME280;23614;33.774;130.514;2022-09-09T00:47:55;100983.51;;;28.55;43.86
37776;BME280;23614;33.774;130.514;2022-09-09T00:50:35;100984.73;;;28.95;43.79
37776;BME280;23614;33.774;130.514;2022-09-09T00:52:53;100986.03;;;29.20;43.95
37776;BME280;23614;33.774;130.514;2022-09-09T00:55:17;100986.48;;;29.52;43.17
37776;BME280;23614;33.774;130.514;2022-09-09T00:57:40;100984.15;;;29.18;42.94
37776;BME280;23614;33.774;130.514;2022-09-09T01:00:20;100981.53;;;29.41;43.09
37776;BME280;23614;33.774;130.514;2022-09-09T01:02:35;100980.85;;;29.63;41.64
37776;BME280;23614;33.774;130.514;2022-09-09T01:05:05;100978.48;;;29.63;41.31
37776;BME280;23614;33.774;130.514;2022-09-09T01:07:24;100971.70;;;29.74;41.81
37776;BME280;23614;33.774;130.514;2022-09-09T01:09:56;100972.59;;;29.85;41.75
37776;BME280;23614;33.774;130.514;2022-09-09T01:12:23;100976.94;;;30.18;41.18
37776;BME280;23614;33.774;130.514;2022-09-09T01:14:47;100975.51;;;30.13;41.11
37776;BME280;23614;33.774;130.514;2022-09-09T01:17:13;100971.58;;;30.17;40.65
37776;BME280;23614;33.774;130.514;2022-09-09T01:19:44;100966.47;;;30.48;40.80
37776;BME280;23614;33.774;130.514;2022-09-09T01:22:03;100959.52;;;30.79;40.51
37776;BME280;23614;33.774;130.514;2022-09-09T01:24:30;100954.18;;;30.58;40.69
37776;BME280;23614;33.774;130.514;2022-09-09T01:26:52;100954.41;;;30.77;40.58
37776;BME280;23614;33.774;130.514;2022-09-09T01:29:18;100955.22;;;31.01;39.51
37776;BME280;23614;33.774;130.514;2022-09-09T01:31:52;100961.62;;;30.66;40.18
37776;BME280;23614;33.774;130.514;2022-09-09T01:34:12;100962.85;;;30.92;40.07
37776;BME280;23614;33.774;130.514;2022-09-09T01:36:41;100961.15;;;30.82;39.99
37776;BME280;23614;33.774;130.514;2022-09-09T01:39:01;100958.33;;;30.82;39.15
37776;BME280;23614;33.774;130.514;2022-09-09T01:41:27;100959.49;;;30.36;39.92
37776;BME280;23614;33.774;130.514;2022-09-09T01:43:54;100952.42;;;31.04;39.57
37776;BME280;23614;33.774;130.514;2022-09-09T01:46:20;100950.70;;;30.84;39.76
37776;BME280;23614;33.774;130.514;2022-09-09T01:48:47;100950.65;;;30.84;39.08
37776;BME280;23614;33.774;130.514;2022-09-09T01:51:11;100951.24;;;30.64;39.90
37776;BME280;23614;33.774;130.514;2022-09-09T01:53:38;100952.50;;;30.74;39.40
37776;BME280;23614;33.774;130.514;2022-09-09T01:56:12;100942.09;;;31.04;39.70
37776;BME280;23614;33.774;130.514;2022-09-09T01:58:36;100942.23;;;31.36;39.12
37776;BME280;23614;33.774;130.514;2022-09-09T02:01:00;100942.09;;;31.64;38.09
37776;BME280;23614;33.774;130.514;2022-09-09T02:03:25;100937.30;;;31.49;37.41
37776;BME280;23614;33.774;130.514;2022-09-09T02:05:52;100929.23;;;31.31;38.17
37776;BME280;23614;33.774;130.514;2022-09-09T02:08:17;100927.04;;;31.49;38.65
37776;BME280;23614;33.774;130.514;2022-09-09T02:10:45;100925.78;;;31.62;38.50
37776;BME280;23614;33.774;130.514;2022-09-09T02:13:08;100926.77;;;31.80;37.56
37776;BME280;23614;33.774;130.514;2022-09-09T02:15:35;100921.90;;;32.02;36.90
37776;BME280;23614;33.774;130.514;2022-09-09T02:17:59;100918.05;;;31.41;36.89
37776;BME280;23614;33.774;130.514;2022-09-09T02:20:24;100911.90;;;31.41;37.02
37776;BME280;23614;33.774;130.514;2022-09-09T02:22:51;100911.44;;;31.77;37.01
37776;BME280;23614;33.774;130.514;2022-09-09T02:25:17;100907.89;;;31.70;37.19
37776;BME280;23614;33.774;130.514;2022-09-09T02:27:43;100901.81;;;31.85;36.73
37776;BME280;23614;33.774;130.514;2022-09-09T02:30:08;100896.02;;;32.27;36.17
37776;BME280;23614;33.774;130.514;2022-09-09T02:32:36;100890.84;;;31.88;36.48
37776;BME280;23614;33.774;130.514;2022-09-09T02:35:03;100883.72;;;31.79;36.84
37776;BME280;23614;33.774;130.514;2022-09-09T02:37:31;100881.37;;;32.03;36.52
37776;BME280;23614;33.774;130.514;2022-09-09T02:39:51;100881.12;;;31.59;37.18
37776;BME280;23614;33.774;130.514;2022-09-09T02:42:17;100881.43;;;31.91;37.11
37776;BME280;23614;33.774;130.514;2022-09-09T02:44:43;100875.69;;;31.24;38.38
37776;BME280;23614;33.774;130.514;2022-09-09T02:47:23;100870.37;;;31.56;37.96
37776;BME280;23614;33.774;130.514;2022-09-09T02:49:46;100874.53;;;31.36;38.92
37776;BME280;23614;33.774;130.514;2022-09-09T02:52:04;100861.75;;;31.21;38.89
37776;BME280;23614;33.774;130.514;2022-09-09T02:54:29;100854.85;;;30.76;39.79
37776;BME280;23614;33.774;130.514;2022-09-09T02:56:54;100852.89;;;31.16;39.42
37776;BME280;23614;33.774;130.514;2022-09-09T02:59:19;100848.51;;;30.81;39.81
37776;BME280;23614;33.774;130.514;2022-09-09T03:01:45;100853.51;;;30.86;40.02
37776;BME280;23614;33.774;130.514;2022-09-09T03:04:11;100857.32;;;31.13;38.98
37776;BME280;23614;33.774;130.514;2022-09-09T03:06:37;100855.89;;;30.59;39.89
37776;BME280;23614;33.774;130.514;2022-09-09T03:09:04;100857.42;;;30.71;39.20
37776;BME280;23614;33.774;130.514;2022-09-09T03:11:31;100861.48;;;30.13;40.85
37776;BME280;23614;33.774;130.514;2022-09-09T03:13:56;100858.52;;;30.37;40.23
37776;BME280;23614;33.774;130.514;2022-09-09T03:16:21;100859.43;;;30.62;39.93
37776;BME280;23614;33.774;130.514;2022-09-09T03:18:47;100861.78;;;30.80;39.93
37776;BME280;23614;33.774;130.514;2022-09-09T03:21:13;100863.31;;;30.61;39.96
37776;BME280;23614;33.774;130.514;2022-09-09T03:23:40;100860.29;;;30.77;39.78
37776;BME280;23614;33.774;130.514;2022-09-09T03:26:05;100859.96;;;30.54;39.50
37776;BME280;23614;33.774;130.514;2022-09-09T03:28:32;100859.38;;;30.23;41.40
37776;BME280;23614;33.774;130.514;2022-09-09T03:31:00;100868.26;;;29.92;42.91
37776;BME280;23614;33.774;130.514;2022-09-09T03:33:24;100860.87;;;29.37;42.97
37776;BME280;23614;33.774;130.514;2022-09-09T03:35:49;100853.97;;;30.37;41.27
37776;BME280;23614;33.774;130.514;2022-09-09T03:38:15;100851.16;;;30.55;40.63
37776;BME280;23614;33.774;130.514;2022-09-09T03:40:49;100855.05;;;30.40;40.07
37776;BME280;23614;33.774;130.514;2022-09-09T03:43:07;100854.12;;;30.35;40.99
37776;BME280;23614;33.774;130.514;2022-09-09T03:45:33;100856.28;;;30.22;40.42
37776;BME280;23614;33.774;130.514;2022-09-09T03:47:59;100857.43;;;30.51;40.37
37776;BME280;23614;33.774;130.514;2022-09-09T03:50:25;100860.04;;;30.32;40.88
37776;BME280;23614;33.774;130.514;2022-09-09T03:52:51;100857.26;;;30.80;40.73
37776;BME280;23614;33.774;130.514;2022-09-09T03:55:17;100852.16;;;30.90;40.81
37776;BME280;23614;33.774;130.514;2022-09-09T03:57:44;100857.99;;;30.05;42.32
37776;BME280;23614;33.774;130.514;2022-09-09T04:00:10;100854.70;;;30.89;40.71
37776;BME280;23614;33.774;130.514;2022-09-09T04:02:35;100850.42;;;31.35;39.69
37776;BME280;23614;33.774;130.514;2022-09-09T04:05:02;100845.15;;;31.31;39.43
37776;BME280;23614;33.774;130.514;2022-09-09T04:07:27;100843.93;;;30.46;40.50
37776;BME280;23614;33.774;130.514;2022-09-09T04:09:54;100843.40;;;31.11;39.70
37776;BME280;23614;33.774;130.514;2022-09-09T04:12:19;100841.59;;;31.14;39.34
37776;BME280;23614;33.774;130.514;2022-09-09T04:14:45;100841.45;;;30.34;40.61
37776;BME280;23614;33.774;130.514;2022-09-09T04:17:12;100842.36;;;30.80;39.70
37776;BME280;23614;33.774;130.514;2022-09-09T04:19:37;100845.20;;;30.96;39.31
37776;BME280;23614;33.774;130.514;2022-09-09T04:22:03;100841.98;;;30.94;39.48
37776;BME280;23614;33.774;130.514;2022-09-09T04:24:31;100838.95;;;30.73;39.50
37776;BME280;23614;33.774;130.514;2022-09-09T04:26:56;100837.08;;;31.54;38.38
37776;BME280;23614;33.774;130.514;2022-09-09T04:29:21;100837.32;;;31.39;38.24
37776;BME280;23614;33.774;130.514;2022-09-09T04:31:47;100832.01;;;30.60;39.05
37776;BME280;23614;33.774;130.514;2022-09-09T04:34:13;100831.10;;;30.98;39.45
37776;BME280;23614;33.774;130.514;2022-09-09T04:36:40;100829.51;;;30.87;39.76
37776;BME280;23614;33.774;130.514;2022-09-09T04:39:05;100829.06;;;31.25;39.16
37776;BME280;23614;33.774;130.514;2022-09-09T04:41:31;100821.89;;;31.89;37.86
37776;BME280;23614;33.774;130.514;2022-09-09T04:43:57;100821.06;;;31.71;38.56
37776;BME280;23614;33.774;130.514;2022-09-09T04:46:24;100818.62;;;31.11;38.98
37776;BME280;23614;33.774;130.514;2022-09-09T04:48:49;100814.59;;;30.85;40.29
37776;BME280;23614;33.774;130.514;2022-09-09T04:51:15;100811.87;;;31.00;39.95
37776;BME280;23614;33.774;130.514;2022-09-09T04:53:41;100809.68;;;30.78;40.29
37776;BME280;23614;33.774;130.514;2022-09-09T04:56:10;100804.72;;;30.93;40.11
37776;BME280;23614;33.774;130.514;2022-09-09T04:58:33;100813.55;;;31.39;40.17
37776;BME280;23614;33.774;130.514;2022-09-09T05:01:05;100807.59;;;30.31;41.16
37776;BME280;23614;33.774;130.514;2022-09-09T05:03:25;100813.64;;;31.04;40.60
37776;BME280;23614;33.774;130.514;2022-09-09T05:05:51;100812.21;;;30.88;40.57
37776;BME280;23614;33.774;130.514;2022-09-09T05:08:17;100808.65;;;29.94;41.86
37776;BME280;23614;33.774;130.514;2022-09-09T05:10:44;100805.31;;;30.61;41.62
37776;BME280;23614;33.774;130.514;2022-09-09T05:13:09;100807.30;;;30.12;42.13
37776;BME280;23614;33.774;130.514;2022-09-09T05:15:35;100807.86;;;30.23;41.89
37776;BME280;23614;33.774;130.514;2022-09-09T05:18:02;100811.43;;;29.89;43.16
37776;BME280;23614;33.774;130.514;2022-09-09T05:20:29;100809.52;;;29.83;43.00
37776;BME280;23614;33.774;130.514;2022-09-09T05:22:55;100804.93;;;28.82;45.55
37776;BME280;23614;33.774;130.514;2022-09-09T05:25:19;100800.20;;;29.60;44.15
37776;BME280;23614;33.774;130.514;2022-09-09T05:27:45;100800.49;;;30.00;43.40
37776;BME280;23614;33.774;130.514;2022-09-09T05:30:12;100803.22;;;29.77;43.51
37776;BME280;23614;33.774;130.514;2022-09-09T05:32:37;100795.21;;;29.93;43.17
37776;BME280;23614;33.774;130.514;2022-09-09T05:35:04;100796.04;;;30.25;42.58
37776;BME280;23614;33.774;130.514;2022-09-09T05:37:31;100800.67;;;30.80;41.97
37776;BME280;23614;33.774;130.514;2022-09-09T05:44:47;100802.73;;;30.10;42.39
37776;BME280;23614;33.774;130.514;2022-09-09T05:47:13;100798.18;;;30.13;42.38
37776;BME280;23614;33.774;130.514;2022-09-09T05:49:39;100798.96;;;30.07;42.80
37776;BME280;23614;33.774;130.514;2022-09-09T05:52:05;100805.90;;;29.94;43.16
37776;BME280;23614;33.774;130.514;2022-09-09T05:54:31;100808.86;;;30.07;43.13
37776;BME280;23614;33.774;130.514;2022-09-09T05:56:57;100803.51;;;29.76;43.20
37776;BME280;23614;33.774;130.514;2022-09-09T05:59:23;100802.90;;;29.99;43.68
37776;BME280;23614;33.774;130.514;2022-09-09T06:01:49;100802.46;;;30.13;43.07
37776;BME280;23614;33.774;130.514;2022-09-09T06:04:15;100805.25;;;29.70;43.49
37776;BME280;23614;33.774;130.514;2022-09-09T06:06:41;100807.00;;;29.93;43.80
37776;BME280;23614;33.774;130.514;2022-09-09T06:09:08;100806.02;;;29.73;43.29
37776;BME280;23614;33.774;130.514;2022-09-09T06:11:34;100802.29;;;29.96;43.15
37776;BME280;23614;33.774;130.514;2022-09-09T06:13:59;100805.99;;;29.58;43.58
37776;BME280;23614;33.774;130.514;2022-09-09T06:16:26;100802.31;;;30.07;42.81
37776;BME280;23614;33.774;130.514;2022-09-09T06:18:52;100811.29;;;29.68;43.38
37776;BME280;23614;33.774;130.514;2022-09-09T06:21:18;100807.08;;;29.80;42.95
37776;BME280;23614;33.774;130.514;2022-09-09T06:23:43;100796.64;;;30.36;42.31
37776;BME280;23614;33.774;130.514;2022-09-09T06:26:12;100801.39;;;30.48;42.03
37776;BME280;23614;33.774;130.514;2022-09-09T06:28:35;100808.30;;;30.38;42.17
37776;BME280;23614;33.774;130.514;2022-09-09T06:31:02;100805.35;;;29.53;43.90
37776;BME280;23614;33.774;130.514;2022-09-09T06:33:30;100805.80;;;29.48;44.45
37776;BME280;23614;33.774;130.514;2022-09-09T06:35:53;100799.58;;;29.27;44.82
37776;BME280;23614;33.774;130.514;2022-09-09T06:38:19;100796.48;;;29.11;44.97
37776;BME280;23614;33.774;130.514;2022-09-09T06:40:52;100795.95;;;29.16;45.07
37776;BME280;23614;33.774;130.514;2022-09-09T06:43:11;100796.04;;;28.76;45.92
37776;BME280;23614;33.774;130.514;2022-09-09T06:45:37;100797.52;;;29.25;44.76
37776;BME280;23614;33.774;130.514;2022-09-09T06:48:03;100789.25;;;29.01;44.76
37776;BME280;23614;33.774;130.514;2022-09-09T06:50:29;100785.82;;;28.64;46.10
37776;BME280;23614;33.774;130.514;2022-09-09T06:52:55;100789.81;;;27.91;47.81
37776;BME280;23614;33.774;130.514;2022-09-09T06:55:22;100786.59;;;28.80;45.89
37776;BME280;23614;33.774;130.514;2022-09-09T06:57:47;100782.18;;;28.71;46.17
37776;BME280;23614;33.774;130.514;2022-09-09T07:00:14;100782.22;;;28.49;46.40
37776;BME280;23614;33.774;130.514;2022-09-09T07:02:39;100778.04;;;28.57;46.29
37776;BME280;23614;33.774;130.514;2022-09-09T07:05:05;100783.59;;;27.99;47.15
37776;BME280;23614;33.774;130.514;2022-09-09T07:07:31;100780.44;;;28.95;46.27
37776;BME280;23614;33.774;130.514;2022-09-09T07:09:57;100783.76;;;28.50;46.55
37776;BME280;23614;33.774;130.514;2022-09-09T07:12:23;100792.08;;;27.60;48.09
37776;BME280;23614;33.774;130.514;2022-09-09T07:14:49;100793.01;;;27.22;48.69
37776;BME280;23614;33.774;130.514;2022-09-09T07:17:16;100795.29;;;27.45;49.11
37776;BME280;23614;33.774;130.514;2022-09-09T07:19:42;100796.43;;;27.30;49.89
37776;BME280;23614;33.774;130.514;2022-09-09T07:22:07;100802.29;;;27.52;48.94
37776;BME280;23614;33.774;130.514;2022-09-09T07:24:34;100798.62;;;27.65;48.87
37776;BME280;23614;33.774;130.514;2022-09-09T07:26:59;100801.80;;;28.09;47.43
37776;BME280;23614;33.774;130.514;2022-09-09T07:29:25;100806.22;;;28.04;47.75
37776;BME280;23614;33.774;130.514;2022-09-09T07:31:52;100804.32;;;27.88;48.33
37776;BME280;23614;33.774;130.514;2022-09-09T07:34:17;100807.99;;;26.92;50.14
37776;BME280;23614;33.774;130.514;2022-09-09T07:36:43;100804.75;;;27.02;49.76
37776;BME280;23614;33.774;130.514;2022-09-09T07:39:10;100809.87;;;27.37;49.73
37776;BME280;23614;33.774;130.514;2022-09-09T07:41:36;100808.23;;;27.28;49.80
37776;BME280;23614;33.774;130.514;2022-09-09T07:44:03;100816.06;;;27.23;50.02
37776;BME280;23614;33.774;130.514;2022-09-09T07:46:28;100819.69;;;27.39;49.45
37776;BME280;23614;33.774;130.514;2022-09-09T07:48:54;100820.98;;;27.91;48.64
37776;BME280;23614;33.774;130.514;2022-09-09T07:51:19;100820.04;;;27.80;47.94
37776;BME280;23614;33.774;130.514;2022-09-09T07:53:44;100817.61;;;28.11;48.05
37776;BME280;23614;33.774;130.514;2022-09-09T07:56:12;100820.77;;;27.58;49.13
37776;BME280;23614;33.774;130.514;2022-09-09T07:58:36;100819.25;;;27.40;49.20
37776;BME280;23614;33.774;130.514;2022-09-09T08:01:08;100810.88;;;28.08;47.57
37776;BME280;23614;33.774;130.514;2022-09-09T08:03:28;100810.43;;;28.15;47.87
37776;BME280;23614;33.774;130.514;2022-09-09T08:06:00;100806.42;;;27.88;47.99
37776;BME280;23614;33.774;130.514;2022-09-09T08:08:21;100806.86;;;28.05;47.54
37776;BME280;23614;33.774;130.514;2022-09-09T08:10:46;100809.50;;;28.38;46.99
37776;BME280;23614;33.774;130.514;2022-09-09T08:13:12;100809.44;;;28.36;47.19
37776;BME280;23614;33.774;130.514;2022-09-09T08:15:38;100809.96;;;28.26;47.75
37776;BME280;23614;33.774;130.514;2022-09-09T08:18:05;100809.87;;;28.20;47.62
37776;BME280;23614;33.774;130.514;2022-09-09T08:20:31;100808.80;;;28.54;46.63
37776;BME280;23614;33.774;130.514;2022-09-09T08:22:57;100813.79;;;28.21;47.22
37776;BME280;23614;33.774;130.514;2022-09-09T08:25:22;100805.34;;;28.58;46.63
37776;BME280;23614;33.774;130.514;2022-09-09T08:27:48;100808.22;;;28.14;47.52
37776;BME280;23614;33.774;130.514;2022-09-09T08:30:14;100807.05;;;28.19;47.55
37776;BME280;23614;33.774;130.514;2022-09-09T08:32:40;100811.12;;;28.27;47.53
37776;BME280;23614;33.774;130.514;2022-09-09T08:35:06;100814.77;;;28.06;47.60
37776;BME280;23614;33.774;130.514;2022-09-09T08:37:32;100815.12;;;28.19;47.60
37776;BME280;23614;33.774;130.514;2022-09-09T08:39:58;100814.74;;;28.24;47.35
37776;BME280;23614;33.774;130.514;2022-09-09T08:42:33;100816.82;;;28.45;47.09
37776;BME280;23614;33.774;130.514;2022-09-09T08:45:00;100820.27;;;27.73;48.51
37776;BME280;23614;33.774;130.514;2022-09-09T08:47:27;100816.77;;;27.83;48.32
37776;BME280;23614;33.774;130.514;2022-09-09T08:49:54;100813.88;;;28.02;48.02
37776;BME280;23614;33.774;130.514;2022-09-09T08:52:12;100815.74;;;28.10;47.86
37776;BME280;23614;33.774;130.514;2022-09-09T08:54:35;100819.75;;;27.80;48.28
37776;BME280;23614;33.774;130.514;2022-09-09T08:57:00;100822.76;;;27.46;48.89
37776;BME280;23614;33.774;130.514;2022-09-09T08:59:26;100818.29;;;27.72;48.49
37776;BME280;23614;33.774;130.514;2022-09-09T09:02:02;100817.50;;;27.94;48.12
37776;BME280;23614;33.774;130.514;2022-09-09T09:04:32;100818.97;;;27.75;48.44
37776;BME280;23614;33.774;130.514;2022-09-09T09:06:53;100822.68;;;27.61;49.34
37776;BME280;23614;33.774;130.514;2022-09-09T09:09:15;100819.13;;;27.19;49.82
37776;BME280;23614;33.774;130.514;2022-09-09T09:11:38;100817.41;;;27.51;49.25
37776;BME280;23614;33.774;130.514;2022-09-09T09:14:07;100821.78;;;27.25;49.71
37776;BME280;23614;33.774;130.514;2022-09-09T09:16:32;100824.83;;;27.38;49.41
37776;BME280;23614;33.774;130.514;2022-09-09T09:18:57;100825.53;;;27.55;48.92
37776;BME280;23614;33.774;130.514;2022-09-09T09:21:25;100830.61;;;27.21;49.44
37776;BME280;23614;33.774;130.514;2022-09-09T09:23:54;100831.04;;;27.20;50.24
37776;BME280;23614;33.774;130.514;2022-09-09T09:26:12;100832.36;;;27.00;50.33
37776;BME280;23614;33.774;130.514;2022-09-09T09:28:38;100834.81;;;27.25;49.75
37776;BME280;23614;33.774;130.514;2022-09-09T09:31:06;100833.46;;;27.07;50.18
37776;BME280;23614;33.774;130.514;2022-09-09T09:33:44;100834.33;;;27.38;49.53
37776;BME280;23614;33.774;130.514;2022-09-09T09:35:57;100835.40;;;27.73;48.73
37776;BME280;23614;33.774;130.514;2022-09-09T09:38:24;100836.54;;;27.56;48.90
37776;BME280;23614;33.774;130.514;2022-09-09T09:40:53;100838.54;;;27.43;49.01
37776;BME280;23614;33.774;130.514;2022-09-09T09:43:21;100838.49;;;27.38;49.13
37776;BME280;23614;33.774;130.514;2022-09-09T09:45:44;100839.25;;;27.57;49.08
37776;BME280;23614;33.774;130.514;2022-09-09T09:48:09;100840.98;;;27.61;48.86
37776;BME280;23614;33.774;130.514;2022-09-09T09:50:33;100837.34;;;27.98;48.35
37776;BME280;23614;33.774;130.514;2022-09-09T09:53:00;100838.25;;;28.08;47.94
37776;BME280;23614;33.774;130.514;2022-09-09T09:55:24;100835.68;;;28.34;47.33
37776;BME280;23614;33.774;130.514;2022-09-09T09:57:50;100834.23;;;28.13;47.23
37776;BME280;23614;33.774;130.514;2022-09-09T10:00:19;100836.02;;;27.82;48.14
37776;BME280;23614;33.774;130.514;2022-09-09T10:02:43;100832.22;;;27.92;47.74
37776;BME280;23614;33.774;130.514;2022-09-09T10:05:15;100837.71;;;27.80;47.91
37776;BME280;23614;33.774;130.514;2022-09-09T10:07:34;100832.92;;;27.98;47.62
37776;BME280;23614;33.774;130.514;2022-09-09T10:10:00;100838.41;;;27.51;48.30
37776;BME280;23614;33.774;130.514;2022-09-09T10:12:36;100833.21;;;27.96;47.44
37776;BME280;23614;33.774;130.514;2022-09-09T10:14:58;100835.00;;;28.33;46.93
37776;BME280;23614;33.774;130.514;2022-09-09T10:17:24;100837.45;;;28.01;47.00
37776;BME280;23614;33.774;130.514;2022-09-09T10:19:51;100843.00;;;28.14;46.91
37776;BME280;23614;33.774;130.514;2022-09-09T10:22:21;100839.25;;;28.06;47.08
37776;BME280;23614;33.774;130.514;2022-09-09T10:24:53;100836.57;;;28.06;47.19
37776;BME280;23614;33.774;130.514;2022-09-09T10:27:08;100835.05;;;28.06;47.10
37776;BME280;23614;33.774;130.514;2022-09-09T10:29:40;100836.31;;;28.00;46.92
37776;BME280;23614;33.774;130.514;2022-09-09T10:32:03;100841.26;;;28.38;46.31
37776;BME280;23614;33.774;130.514;2022-09-09T10:34:35;100842.32;;;28.18;46.28
37776;BME280;23614;33.774;130.514;2022-09-09T10:36:49;100838.01;;;28.41;45.96
37776;BME280;23614;33.774;130.514;2022-09-09T10:39:22;100837.18;;;28.89;45.44
37776;BME280;23614;33.774;130.514;2022-09-09T10:41:47;100839.21;;;28.27;46.15
37776;BME280;23614;33.774;130.514;2022-09-09T10:44:17;100836.73;;;28.20;46.38
37776;BME280;23614;33.774;130.514;2022-09-09T10:46:35;100832.07;;;28.57;45.70
37776;BME280;23614;33.774;130.514;2022-09-09T10:49:08;100835.33;;;28.33;46.11
37776;BME280;23614;33.774;130.514;2022-09-09T10:51:32;100843.33;;;28.22;46.42
37776;BME280;23614;33.774;130.514;2022-09-09T10:53:57;100848.37;;;28.10;46.81
37776;BME280;23614;33.774;130.514;2022-09-09T10:56:17;100847.36;;;28.16;46.59
37776;BME280;23614;33.774;130.514;2022-09-09T10:58:43;100848.47;;;28.26;46.42
37776;BME280;23614;33.774;130.514;2022-09-09T11:01:14;100852.68;;;27.83;46.95
37776;BME280;23614;33.774;130.514;2022-09-09T11:03:32;100859.15;;;27.91;46.98
37776;BME280;23614;33.774;130.514;2022-09-09T11:06:02;100858.88;;;28.05;46.83
37776;BME280;23614;33.774;130.514;2022-09-09T11:08:26;100862.09;;;27.91;46.95
37776;BME280;23614;33.774;130.514;2022-09-09T11:10:55;100863.51;;;28.05;46.58
37776;BME280;23614;33.774;130.514;2022-09-09T11:13:19;100862.60;;;28.17;46.04
37776;BME280;23614;33.774;130.514;2022-09-09T11:15:45;100863.18;;;28.37;46.14
37776;BME280;23614;33.774;130.514;2022-09-09T11:18:13;100864.85;;;28.43;45.31
37776;BME280;23614;33.774;130.514;2022-09-09T11:20:34;100870.49;;;28.55;45.18
37776;BME280;23614;33.774;130.514;2022-09-09T11:23:03;100871.43;;;28.30;45.68
37776;BME280;23614;33.774;130.514;2022-09-09T11:25:29;100874.28;;;28.28;45.45
37776;BME280;23614;33.774;130.514;2022-09-09T11:28:02;100875.19;;;28.48;45.29
37776;BME280;23614;33.774;130.514;2022-09-09T11:30:21;100878.55;;;28.41;45.28
37776;BME280;23614;33.774;130.514;2022-09-09T11:32:57;100882.83;;;28.29;45.30
37776;BME280;23614;33.774;130.514;2022-09-09T11:35:24;100884.14;;;28.27;45.58
37776;BME280;23614;33.774;130.514;2022-09-09T11:37:49;100887.06;;;28.21;45.65
37776;BME280;23614;33.774;130.514;2022-09-09T11:40:15;100889.75;;;27.92;45.95
37776;BME280;23614;33.774;130.514;2022-09-09T11:42:28;100889.85;;;27.96;45.89
37776;BME280;23614;33.774;130.514;2022-09-09T11:44:54;100896.10;;;27.94;45.77
37776;BME280;23614;33.774;130.514;2022-09-09T11:47:24;100898.03;;;28.23;45.23
37776;BME280;23614;33.774;130.514;2022-09-09T11:49:46;100898.49;;;28.46;44.61
37776;BME280;23614;33.774;130.514;2022-09-09T11:52:20;100900.48;;;28.34;44.96
37776;BME280;23614;33.774;130.514;2022-09-09T11:54:48;100903.76;;;28.39;44.83
37776;BME280;23614;33.774;130.514;2022-09-09T11:57:04;100902.70;;;28.33;44.58
37776;BME280;23614;33.774;130.514;2022-09-09T11:59:31;100901.28;;;28.60;44.38
37776;BME280;23614;33.774;130.514;2022-09-09T12:01:58;100907.84;;;28.48;44.73
37776;BME280;23614;33.774;130.514;2022-09-09T12:04:39;100907.42;;;28.19;44.82
37776;BME280;23614;33.774;130.514;2022-09-09T12:06:50;100906.59;;;28.07;44.68
37776;BME280;23614;33.774;130.514;2022-09-09T12:09:26;100904.38;;;28.24;44.59
37776;BME280;23614;33.774;130.514;2022-09-09T12:11:40;100906.00;;;28.41;44.23
37776;BME280;23614;33.774;130.514;2022-09-09T12:14:21;100909.05;;;28.47;44.03
37776;BME280;23614;33.774;130.514;2022-09-09T12:16:34;100911.28;;;28.25;44.59
37776;BME280;23614;33.774;130.514;2022-09-09T12:19:06;100910.57;;;28.23;44.52
37776;BME280;23614;33.774;130.514;2022-09-09T12:21:33;100914.80;;;28.38;44.52
37776;BME280;23614;33.774;130.514;2022-09-09T12:23:52;100915.99;;;28.32;44.42
37776;BME280;23614;33.774;130.514;2022-09-09T12:26:26;100918.25;;;28.29;44.36
37776;BME280;23614;33.774;130.514;2022-09-09T12:28:49;100919.98;;;28.24;44.36